Milford, Pennsylvania
Current Conditions -  °F | °C
As of 3:02 AM on Monday 24 Nov 2014 (Local Time) from KFWN Reporting Station
Moderate Rain Moderate Rain  
Wind Chill: 44°   Ceiling: 1100
Heat Index: 44°   Visibility: 2.5mi
Dew Point: 43°   Wind: 3mph
Humidity: 96%   Direction: NA
Pressure: 29.77"   Gusts: NA
Location:  41.32°N, 74.8°W
Report Text: KFWN 240802Z AUTO VRB03KT 2 1/2SM RA BR OVC011 07/06 A2977 RMK AO2 PRESFR P0002 T00670061
Loading
Personal Weather Stations






























Interactive Weather Map New forecast layout! Learn more

10-Day Weather Forecast

Advertisements
Track Severe Weather on mobile